sensor_id;sensor_type;location;lat;lon;timestamp;temperature;humidity
69464;DHT22;56665;41.106;16.688;2023-09-12T00:01:06;21.83;57.28
69464;DHT22;56665;41.106;16.688;2023-09-12T00:04:11;21.80;57.31
69464;DHT22;56665;41.106;16.688;2023-09-12T00:07:15;21.77;57.38
69464;DHT22;56665;41.106;16.688;2023-09-12T00:10:20;21.77;57.10
69464;DHT22;56665;41.106;16.688;2023-09-12T00:13:24;21.73;57.29
69464;DHT22;56665;41.106;16.688;2023-09-12T00:16:27;21.70;57.16
69464;DHT22;56665;41.106;16.688;2023-09-12T00:19:31;21.70;57.42
69464;DHT22;56665;41.106;16.688;2023-09-12T00:22:35;21.69;57.37
69464;DHT22;56665;41.106;16.688;2023-09-12T00:25:38;21.67;57.13
69464;DHT22;56665;41.106;16.688;2023-09-12T00:28:42;21.67;57.11
69464;DHT22;56665;41.106;16.688;2023-09-12T00:31:46;21.62;57.23
69464;DHT22;56665;41.106;16.688;2023-09-12T00:34:50;21.58;57.77
69464;DHT22;56665;41.106;16.688;2023-09-12T00:37:53;21.61;57.63
69464;DHT22;56665;41.106;16.688;2023-09-12T00:40:57;21.56;57.66
69464;DHT22;56665;41.106;16.688;2023-09-12T00:44:01;21.55;57.51
69464;DHT22;56665;41.106;16.688;2023-09-12T00:47:06;21.54;57.41
69464;DHT22;56665;41.106;16.688;2023-09-12T00:50:11;21.52;57.24
69464;DHT22;56665;41.106;16.688;2023-09-12T00:53:16;21.48;56.89
69464;DHT22;56665;41.106;16.688;2023-09-12T00:56:20;21.41;56.86
69464;DHT22;56665;41.106;16.688;2023-09-12T00:59:24;21.38;56.81
69464;DHT22;56665;41.106;16.688;2023-09-12T01:02:27;21.38;56.72
69464;DHT22;56665;41.106;16.688;2023-09-12T01:05:31;21.35;56.72
69464;DHT22;56665;41.106;16.688;2023-09-12T01:08:36;21.31;56.69
69464;DHT22;56665;41.106;16.688;2023-09-12T01:11:42;21.27;56.57
69464;DHT22;56665;41.106;16.688;2023-09-12T01:14:48;21.19;56.24
69464;DHT22;56665;41.106;16.688;2023-09-12T01:17:51;21.14;56.83
69464;DHT22;56665;41.106;16.688;2023-09-12T01:25:00;21.14;57.02
69464;DHT22;56665;41.106;16.688;2023-09-12T01:28:10;21.12;56.83
69464;DHT22;56665;41.106;16.688;2023-09-12T01:31:15;21.14;56.91
69464;DHT22;56665;41.106;16.688;2023-09-12T01:34:21;21.14;56.74
69464;DHT22;56665;41.106;16.688;2023-09-12T01:37:25;21.14;56.94
69464;DHT22;56665;41.106;16.688;2023-09-12T01:40:44;21.07;56.93
69464;DHT22;56665;41.106;16.688;2023-09-12T01:43:49;21.07;57.22
69464;DHT22;56665;41.106;16.688;2023-09-12T01:46:54;21.04;57.10
69464;DHT22;56665;41.106;16.688;2023-09-12T01:50:00;21.04;57.18
69464;DHT22;56665;41.106;16.688;2023-09-12T01:53:05;21.01;57.20
69464;DHT22;56665;41.106;16.688;2023-09-12T01:56:08;21.03;57.09
69464;DHT22;56665;41.106;16.688;2023-09-12T01:59:13;21.00;57.33
69464;DHT22;56665;41.106;16.688;2023-09-12T02:02:17;21.01;57.21
69464;DHT22;56665;41.106;16.688;2023-09-12T02:05:21;20.98;57.45
69464;DHT22;56665;41.106;16.688;2023-09-12T02:08:26;20.96;57.28
69464;DHT22;56665;41.106;16.688;2023-09-12T02:11:29;20.96;57.26
69464;DHT22;56665;41.106;16.688;2023-09-12T02:14:33;20.93;57.25
69464;DHT22;56665;41.106;16.688;2023-09-12T02:17:37;20.96;57.47
69464;DHT22;56665;41.106;16.688;2023-09-12T02:20:42;20.94;57.34
69464;DHT22;56665;41.106;16.688;2023-09-12T02:23:49;20.94;57.39
69464;DHT22;56665;41.106;16.688;2023-09-12T02:26:52;20.91;57.40
69464;DHT22;56665;41.106;16.688;2023-09-12T02:29:56;20.91;57.74
69464;DHT22;56665;41.106;16.688;2023-09-12T02:33:00;20.90;57.77
69464;DHT22;56665;41.106;16.688;2023-09-12T02:36:04;20.91;57.46
69464;DHT22;56665;41.106;16.688;2023-09-12T02:39:08;20.88;57.62
69464;DHT22;56665;41.106;16.688;2023-09-12T02:42:12;20.88;57.73
69464;DHT22;56665;41.106;16.688;2023-09-12T02:45:15;20.90;57.39
69464;DHT22;56665;41.106;16.688;2023-09-12T02:48:19;20.84;57.63
69464;DHT22;56665;41.106;16.688;2023-09-12T02:51:25;20.84;57.47
69464;DHT22;56665;41.106;16.688;2023-09-12T02:54:29;20.83;57.53
69464;DHT22;56665;41.106;16.688;2023-09-12T02:57:32;20.83;57.63
69464;DHT22;56665;41.106;16.688;2023-09-12T03:00:39;20.79;57.77
69464;DHT22;56665;41.106;16.688;2023-09-12T03:03:46;20.80;57.73
69464;DHT22;56665;41.106;16.688;2023-09-12T03:06:51;20.75;57.84
69464;DHT22;56665;41.106;16.688;2023-09-12T03:09:55;20.73;57.77
69464;DHT22;56665;41.106;16.688;2023-09-12T03:12:59;20.66;57.80
69464;DHT22;56665;41.106;16.688;2023-09-12T03:16:04;20.66;57.92
69464;DHT22;56665;41.106;16.688;2023-09-12T03:19:08;20.66;58.11
69464;DHT22;56665;41.106;16.688;2023-09-12T03:22:12;20.61;57.87
69464;DHT22;56665;41.106;16.688;2023-09-12T03:25:16;20.52;58.00
69464;DHT22;56665;41.106;16.688;2023-09-12T03:28:20;20.46;58.30
69464;DHT22;56665;41.106;16.688;2023-09-12T03:31:25;20.46;58.44
69464;DHT22;56665;41.106;16.688;2023-09-12T03:34:29;20.47;58.27
69464;DHT22;56665;41.106;16.688;2023-09-12T03:37:33;20.42;58.29
69464;DHT22;56665;41.106;16.688;2023-09-12T03:40:36;20.38;58.51
69464;DHT22;56665;41.106;16.688;2023-09-12T03:43:40;20.33;58.57
69464;DHT22;56665;41.106;16.688;2023-09-12T03:46:44;20.33;58.68
69464;DHT22;56665;41.106;16.688;2023-09-12T03:49:49;20.35;58.60
69464;DHT22;56665;41.106;16.688;2023-09-12T03:52:54;20.33;58.65
69464;DHT22;56665;41.106;16.688;2023-09-12T03:55:58;20.35;58.58
69464;DHT22;56665;41.106;16.688;2023-09-12T03:59:02;20.29;58.83
69464;DHT22;56665;41.106;16.688;2023-09-12T04:02:06;20.26;58.95
69464;DHT22;56665;41.106;16.688;2023-09-12T04:05:10;20.22;58.83
69464;DHT22;56665;41.106;16.688;2023-09-12T04:08:14;20.19;59.01
69464;DHT22;56665;41.106;16.688;2023-09-12T04:11:18;20.19;59.08
69464;DHT22;56665;41.106;16.688;2023-09-12T04:14:22;20.16;59.15
69464;DHT22;56665;41.106;16.688;2023-09-12T04:17:25;20.14;59.15
69464;DHT22;56665;41.106;16.688;2023-09-12T04:20:30;20.14;59.08
69464;DHT22;56665;41.106;16.688;2023-09-12T04:23:34;20.15;59.36
69464;DHT22;56665;41.106;16.688;2023-09-12T04:26:40;20.15;59.50
69464;DHT22;56665;41.106;16.688;2023-09-12T04:29:43;20.15;59.87
69464;DHT22;56665;41.106;16.688;2023-09-12T04:32:48;20.21;59.84
69464;DHT22;56665;41.106;16.688;2023-09-12T04:35:51;20.21;59.81
69464;DHT22;56665;41.106;16.688;2023-09-12T04:38:55;20.22;59.84
69464;DHT22;56665;41.106;16.688;2023-09-12T04:41:59;20.22;59.70
69464;DHT22;56665;41.106;16.688;2023-09-12T04:45:03;20.28;59.58
69464;DHT22;56665;41.106;16.688;2023-09-12T04:48:06;20.29;59.39
69464;DHT22;56665;41.106;16.688;2023-09-12T04:51:10;20.29;59.54
69464;DHT22;56665;41.106;16.688;2023-09-12T04:54:14;20.35;59.26
69464;DHT22;56665;41.106;16.688;2023-09-12T04:57:18;20.36;59.32
69464;DHT22;56665;41.106;16.688;2023-09-12T05:00:23;20.42;59.26
69464;DHT22;56665;41.106;16.688;2023-09-12T05:03:26;20.46;59.18
69464;DHT22;56665;41.106;16.688;2023-09-12T05:06:30;20.47;59.25
69464;DHT22;56665;41.106;16.688;2023-09-12T05:09:36;20.60;59.26
69464;DHT22;56665;41.106;16.688;2023-09-12T05:12:40;20.73;59.00
69464;DHT22;56665;41.106;16.688;2023-09-12T05:15:44;20.88;58.66
69464;DHT22;56665;41.106;16.688;2023-09-12T05:18:48;20.98;58.43
69464;DHT22;56665;41.106;16.688;2023-09-12T05:21:53;21.12;57.99
69464;DHT22;56665;41.106;16.688;2023-09-12T05:24:56;21.28;57.70
69464;DHT22;56665;41.106;16.688;2023-09-12T05:28:00;21.42;57.43
69464;DHT22;56665;41.106;16.688;2023-09-12T05:31:04;21.54;57.32
69464;DHT22;56665;41.106;16.688;2023-09-12T05:34:09;21.72;57.10
69464;DHT22;56665;41.106;16.688;2023-09-12T05:37:13;21.89;56.79
69464;DHT22;56665;41.106;16.688;2023-09-12T05:40:18;22.04;56.63
69464;DHT22;56665;41.106;16.688;2023-09-12T05:43:21;22.21;56.59
69464;DHT22;56665;41.106;16.688;2023-09-12T05:46:25;22.45;56.34
69464;DHT22;56665;41.106;16.688;2023-09-12T05:49:29;22.67;56.00
69464;DHT22;56665;41.106;16.688;2023-09-12T05:52:33;22.94;55.68
69464;DHT22;56665;41.106;16.688;2023-09-12T05:55:37;23.16;55.38
69464;DHT22;56665;41.106;16.688;2023-09-12T05:58:40;23.40;55.06
69464;DHT22;56665;41.106;16.688;2023-09-12T06:01:46;23.70;54.68
69464;DHT22;56665;41.106;16.688;2023-09-12T06:04:49;23.94;54.48
69464;DHT22;56665;41.106;16.688;2023-09-12T06:07:53;24.22;54.19
69464;DHT22;56665;41.106;16.688;2023-09-12T06:10:57;24.49;53.88
69464;DHT22;56665;41.106;16.688;2023-09-12T06:14:01;24.76;53.68
69464;DHT22;56665;41.106;16.688;2023-09-12T06:17:04;25.01;53.66
69464;DHT22;56665;41.106;16.688;2023-09-12T06:20:09;25.25;53.64
69464;DHT22;56665;41.106;16.688;2023-09-12T06:23:12;25.49;53.71
69464;DHT22;56665;41.106;16.688;2023-09-12T06:26:16;25.78;53.80
69464;DHT22;56665;41.106;16.688;2023-09-12T06:29:20;26.07;53.86
69464;DHT22;56665;41.106;16.688;2023-09-12T06:32:24;26.36;53.94
69464;DHT22;56665;41.106;16.688;2023-09-12T06:35:27;26.60;54.07
69464;DHT22;56665;41.106;16.688;2023-09-12T06:38:31;26.88;54.17
69464;DHT22;56665;41.106;16.688;2023-09-12T06:41:35;27.12;54.31
69464;DHT22;56665;41.106;16.688;2023-09-12T06:44:38;27.42;53.79
69464;DHT22;56665;41.106;16.688;2023-09-12T06:47:42;27.74;53.12
69464;DHT22;56665;41.106;16.688;2023-09-12T06:50:46;27.94;51.51
69464;DHT22;56665;41.106;16.688;2023-09-12T06:53:50;28.21;51.10
69464;DHT22;56665;41.106;16.688;2023-09-12T06:56:54;28.42;49.87
69464;DHT22;56665;41.106;16.688;2023-09-12T06:59:58;28.62;48.51
69464;DHT22;56665;41.106;16.688;2023-09-12T07:03:02;28.86;48.01
69464;DHT22;56665;41.106;16.688;2023-09-12T07:06:06;29.12;47.62
69464;DHT22;56665;41.106;16.688;2023-09-12T07:09:10;29.39;46.07
69464;DHT22;56665;41.106;16.688;2023-09-12T07:12:17;29.63;44.80
69464;DHT22;56665;41.106;16.688;2023-09-12T07:15:21;29.79;44.53
69464;DHT22;56665;41.106;16.688;2023-09-12T07:18:25;30.07;44.00
69464;DHT22;56665;41.106;16.688;2023-09-12T07:21:28;30.31;43.57
69464;DHT22;56665;41.106;16.688;2023-09-12T07:24:32;30.60;43.25
69464;DHT22;56665;41.106;16.688;2023-09-12T07:27:37;30.77;42.96
69464;DHT22;56665;41.106;16.688;2023-09-12T07:30:40;31.04;42.40
69464;DHT22;56665;41.106;16.688;2023-09-12T07:33:44;31.37;41.55
69464;DHT22;56665;41.106;16.688;2023-09-12T07:36:48;31.63;41.33
69464;DHT22;56665;41.106;16.688;2023-09-12T07:39:51;31.83;40.82
69464;DHT22;56665;41.106;16.688;2023-09-12T07:42:55;32.03;40.48
69464;DHT22;56665;41.106;16.688;2023-09-12T07:45:59;32.24;39.98
69464;DHT22;56665;41.106;16.688;2023-09-12T07:49:02;32.41;39.90
69464;DHT22;56665;41.106;16.688;2023-09-12T07:52:06;32.58;39.30
69464;DHT22;56665;41.106;16.688;2023-09-12T07:55:10;32.56;39.28
69464;DHT22;56665;41.106;16.688;2023-09-12T07:58:17;32.66;39.27
69464;DHT22;56665;41.106;16.688;2023-09-12T08:01:24;32.79;38.79
69464;DHT22;56665;41.106;16.688;2023-09-12T08:04:29;32.98;37.58
69464;DHT22;56665;41.106;16.688;2023-09-12T08:07:32;33.23;37.26
69464;DHT22;56665;41.106;16.688;2023-09-12T08:10:36;33.53;36.65
69464;DHT22;56665;41.106;16.688;2023-09-12T08:13:40;33.87;35.74
69464;DHT22;56665;41.106;16.688;2023-09-12T08:16:43;34.06;36.18
69464;DHT22;56665;41.106;16.688;2023-09-12T08:19:48;34.15;33.92
69464;DHT22;56665;41.106;16.688;2023-09-12T08:22:51;34.21;33.01
69464;DHT22;56665;41.106;16.688;2023-09-12T08:25:55;34.29;34.24
69464;DHT22;56665;41.106;16.688;2023-09-12T08:28:58;34.55;34.81
69464;DHT22;56665;41.106;16.688;2023-09-12T08:32:02;34.74;34.88
69464;DHT22;56665;41.106;16.688;2023-09-12T08:35:07;34.87;33.99
69464;DHT22;56665;41.106;16.688;2023-09-12T08:38:10;34.84;34.02
69464;DHT22;56665;41.106;16.688;2023-09-12T08:41:15;35.08;34.22
69464;DHT22;56665;41.106;16.688;2023-09-12T08:44:20;35.15;33.88
69464;DHT22;56665;41.106;16.688;2023-09-12T08:47:24;35.37;33.16
69464;DHT22;56665;41.106;16.688;2023-09-12T08:50:28;35.90;32.51
69464;DHT22;56665;41.106;16.688;2023-09-12T08:53:36;36.30;32.23
69464;DHT22;56665;41.106;16.688;2023-09-12T08:56:40;36.70;31.58
69464;DHT22;56665;41.106;16.688;2023-09-12T08:59:46;36.70;30.64
69464;DHT22;56665;41.106;16.688;2023-09-12T09:02:51;36.26;31.23
69464;DHT22;56665;41.106;16.688;2023-09-12T09:05:55;36.06;31.03
69464;DHT22;56665;41.106;16.688;2023-09-12T09:09:01;35.89;32.12
69464;DHT22;56665;41.106;16.688;2023-09-12T09:12:09;35.74;32.04
69464;DHT22;56665;41.106;16.688;2023-09-12T09:15:29;35.90;32.22
69464;DHT22;56665;41.106;16.688;2023-09-12T09:22:05;35.89;36.25
69464;DHT22;56665;41.106;16.688;2023-09-12T09:25:12;35.49;37.69
69464;DHT22;56665;41.106;16.688;2023-09-12T09:28:20;35.14;39.24
69464;DHT22;56665;41.106;16.688;2023-09-12T09:31:24;35.33;39.77
69464;DHT22;56665;41.106;16.688;2023-09-12T09:34:28;34.96;40.69
69464;DHT22;56665;41.106;16.688;2023-09-12T09:37:33;34.67;41.47
69464;DHT22;56665;41.106;16.688;2023-09-12T09:40:36;34.71;41.53
69464;DHT22;56665;41.106;16.688;2023-09-12T09:43:40;34.89;41.48
69464;DHT22;56665;41.106;16.688;2023-09-12T09:46:45;34.60;42.13
69464;DHT22;56665;41.106;16.688;2023-09-12T09:49:51;34.69;42.43
69464;DHT22;56665;41.106;16.688;2023-09-12T09:52:55;34.63;42.94
69464;DHT22;56665;41.106;16.688;2023-09-12T09:56:11;34.94;42.43
69464;DHT22;56665;41.106;16.688;2023-09-12T09:59:16;34.48;43.62
69464;DHT22;56665;41.106;16.688;2023-09-12T10:02:22;34.48;43.85
69464;DHT22;56665;41.106;16.688;2023-09-12T10:05:28;34.45;44.01
69464;DHT22;56665;41.106;16.688;2023-09-12T10:08:34;34.49;44.11
69464;DHT22;56665;41.106;16.688;2023-09-12T10:11:40;34.02;44.93
69464;DHT22;56665;41.106;16.688;2023-09-12T10:14:45;33.80;45.65
69464;DHT22;56665;41.106;16.688;2023-09-12T10:17:55;33.78;45.47
69464;DHT22;56665;41.106;16.688;2023-09-12T10:21:10;33.94;45.49
69464;DHT22;56665;41.106;16.688;2023-09-12T10:24:16;33.58;46.81
69464;DHT22;56665;41.106;16.688;2023-09-12T10:27:20;33.62;46.41
69464;DHT22;56665;41.106;16.688;2023-09-12T10:30:25;33.47;46.42
69464;DHT22;56665;41.106;16.688;2023-09-12T10:33:29;33.14;47.73
69464;DHT22;56665;41.106;16.688;2023-09-12T10:36:37;33.09;47.95
69464;DHT22;56665;41.106;16.688;2023-09-12T10:39:45;33.26;47.45
69464;DHT22;56665;41.106;16.688;2023-09-12T10:42:49;33.49;47.59
69464;DHT22;56665;41.106;16.688;2023-09-12T10:45:54;33.29;47.78
69464;DHT22;56665;41.106;16.688;2023-09-12T10:48:58;33.57;46.85
69464;DHT22;56665;41.106;16.688;2023-09-12T10:52:02;33.54;46.87
69464;DHT22;56665;41.106;16.688;2023-09-12T10:55:07;33.54;46.91
69464;DHT22;56665;41.106;16.688;2023-09-12T10:58:11;33.57;45.61
69464;DHT22;56665;41.106;16.688;2023-09-12T11:01:25;33.71;45.35
69464;DHT22;56665;41.106;16.688;2023-09-12T11:10:40;33.12;47.12
69464;DHT22;56665;41.106;16.688;2023-09-12T11:13:44;33.02;47.38
69464;DHT22;56665;41.106;16.688;2023-09-12T11:17:20;33.24;46.28
69464;DHT22;56665;41.106;16.688;2023-09-12T11:20:24;33.41;46.38
69464;DHT22;56665;41.106;16.688;2023-09-12T11:23:28;33.50;45.85
69464;DHT22;56665;41.106;16.688;2023-09-12T11:26:32;33.41;46.49
69464;DHT22;56665;41.106;16.688;2023-09-12T11:29:37;33.57;46.28
69464;DHT22;56665;41.106;16.688;2023-09-12T11:32:44;33.37;46.96
69464;DHT22;56665;41.106;16.688;2023-09-12T11:35:52;33.33;46.90
69464;DHT22;56665;41.106;16.688;2023-09-12T11:39:02;32.95;47.93
69464;DHT22;56665;41.106;16.688;2023-09-12T11:42:10;32.46;48.31
69464;DHT22;56665;41.106;16.688;2023-09-12T11:45:14;32.38;49.06
69464;DHT22;56665;41.106;16.688;2023-09-12T11:48:19;32.51;47.68
69464;DHT22;56665;41.106;16.688;2023-09-12T11:51:24;32.68;46.58
69464;DHT22;56665;41.106;16.688;2023-09-12T11:54:30;32.89;46.20
69464;DHT22;56665;41.106;16.688;2023-09-12T11:57:37;32.80;46.87
69464;DHT22;56665;41.106;16.688;2023-09-12T12:00:54;32.85;45.69
69464;DHT22;56665;41.106;16.688;2023-09-12T12:03:58;32.45;45.35
69464;DHT22;56665;41.106;16.688;2023-09-12T12:07:02;32.34;44.25
69464;DHT22;56665;41.106;16.688;2023-09-12T12:10:09;32.39;44.58
69464;DHT22;56665;41.106;16.688;2023-09-12T12:13:17;32.17;45.34
69464;DHT22;56665;41.106;16.688;2023-09-12T12:16:21;32.44;44.58
69464;DHT22;56665;41.106;16.688;2023-09-12T12:19:25;32.63;44.96
69464;DHT22;56665;41.106;16.688;2023-09-12T12:22:30;32.80;44.41
69464;DHT22;56665;41.106;16.688;2023-09-12T12:25:34;32.71;44.24
69464;DHT22;56665;41.106;16.688;2023-09-12T12:28:40;32.79;43.99
69464;DHT22;56665;41.106;16.688;2023-09-12T12:31:44;32.76;43.82
69464;DHT22;56665;41.106;16.688;2023-09-12T12:34:48;32.51;43.47
69464;DHT22;56665;41.106;16.688;2023-09-12T12:37:54;32.61;43.71
69464;DHT22;56665;41.106;16.688;2023-09-12T12:40:59;32.73;44.09
69464;DHT22;56665;41.106;16.688;2023-09-12T12:44:03;32.98;43.65
69464;DHT22;56665;41.106;16.688;2023-09-12T12:47:08;32.89;42.38
69464;DHT22;56665;41.106;16.688;2023-09-12T12:50:16;32.89;41.95
69464;DHT22;56665;41.106;16.688;2023-09-12T12:53:43;32.76;42.62
69464;DHT22;56665;41.106;16.688;2023-09-12T12:56:47;32.56;43.03
69464;DHT22;56665;41.106;16.688;2023-09-12T12:59:50;32.63;42.40
69464;DHT22;56665;41.106;16.688;2023-09-12T13:02:54;32.58;40.74
69464;DHT22;56665;41.106;16.688;2023-09-12T13:05:58;32.69;41.04
69464;DHT22;56665;41.106;16.688;2023-09-12T13:09:04;32.80;40.98
69464;DHT22;56665;41.106;16.688;2023-09-12T13:12:08;32.69;40.41
69464;DHT22;56665;41.106;16.688;2023-09-12T13:15:13;32.72;41.27
69464;DHT22;56665;41.106;16.688;2023-09-12T13:18:18;32.62;40.64
69464;DHT22;56665;41.106;16.688;2023-09-12T13:21:21;32.52;39.77
69464;DHT22;56665;41.106;16.688;2023-09-12T13:24:25;32.25;38.62
69464;DHT22;56665;41.106;16.688;2023-09-12T13:27:29;32.41;39.34
69464;DHT22;56665;41.106;16.688;2023-09-12T13:30:33;32.79;39.74
69464;DHT22;56665;41.106;16.688;2023-09-12T13:33:36;33.04;39.49
69464;DHT22;56665;41.106;16.688;2023-09-12T13:36:40;33.02;40.23
69464;DHT22;56665;41.106;16.688;2023-09-12T13:39:44;32.95;38.21
69464;DHT22;56665;41.106;16.688;2023-09-12T13:42:52;33.04;39.65
69464;DHT22;56665;41.106;16.688;2023-09-12T13:45:56;33.00;39.22
69464;DHT22;56665;41.106;16.688;2023-09-12T13:49:00;32.90;39.30
69464;DHT22;56665;41.106;16.688;2023-09-12T13:52:06;32.92;38.79
69464;DHT22;56665;41.106;16.688;2023-09-12T13:55:10;32.66;39.82
69464;DHT22;56665;41.106;16.688;2023-09-12T13:58:17;32.58;38.84
69464;DHT22;56665;41.106;16.688;2023-09-12T14:01:21;32.54;39.33
69464;DHT22;56665;41.106;16.688;2023-09-12T14:04:26;32.49;38.58
69464;DHT22;56665;41.106;16.688;2023-09-12T14:07:30;32.23;38.37
69464;DHT22;56665;41.106;16.688;2023-09-12T14:10:33;32.25;39.02
69464;DHT22;56665;41.106;16.688;2023-09-12T14:13:37;32.28;38.58
69464;DHT22;56665;41.106;16.688;2023-09-12T14:16:41;32.13;38.99
69464;DHT22;56665;41.106;16.688;2023-09-12T14:19:45;32.11;39.44
69464;DHT22;56665;41.106;16.688;2023-09-12T14:22:48;32.01;40.17
69464;DHT22;56665;41.106;16.688;2023-09-12T14:25:52;31.86;40.16
69464;DHT22;56665;41.106;16.688;2023-09-12T14:28:56;31.87;40.27
69464;DHT22;56665;41.106;16.688;2023-09-12T14:32:00;31.91;42.41
69464;DHT22;56665;41.106;16.688;2023-09-12T14:35:04;31.66;42.73
69464;DHT22;56665;41.106;16.688;2023-09-12T14:38:08;31.62;42.44
69464;DHT22;56665;41.106;16.688;2023-09-12T14:41:12;31.43;40.82
69464;DHT22;56665;41.106;16.688;2023-09-12T14:44:16;31.35;41.76
69464;DHT22;56665;41.106;16.688;2023-09-12T14:47:20;31.30;45.24
69464;DHT22;56665;41.106;16.688;2023-09-12T14:50:24;31.19;46.51
69464;DHT22;56665;41.106;16.688;2023-09-12T14:53:29;31.16;46.16
69464;DHT22;56665;41.106;16.688;2023-09-12T14:56:33;31.05;46.84
69464;DHT22;56665;41.106;16.688;2023-09-12T14:59:37;30.95;46.42
69464;DHT22;56665;41.106;16.688;2023-09-12T15:02:40;30.91;49.06
69464;DHT22;56665;41.106;16.688;2023-09-12T15:05:45;30.65;50.06
69464;DHT22;56665;41.106;16.688;2023-09-12T15:08:49;30.44;50.57
69464;DHT22;56665;41.106;16.688;2023-09-12T15:11:53;30.38;52.96
69464;DHT22;56665;41.106;16.688;2023-09-12T15:14:57;30.30;51.29
69464;DHT22;56665;41.106;16.688;2023-09-12T15:18:00;30.23;50.88
69464;DHT22;56665;41.106;16.688;2023-09-12T15:21:05;30.06;50.17
69464;DHT22;56665;41.106;16.688;2023-09-12T15:24:08;30.03;50.89
69464;DHT22;56665;41.106;16.688;2023-09-12T15:27:12;29.93;52.64
69464;DHT22;56665;41.106;16.688;2023-09-12T15:30:16;29.82;51.97
69464;DHT22;56665;41.106;16.688;2023-09-12T15:33:20;29.66;51.83
69464;DHT22;56665;41.106;16.688;2023-09-12T15:36:25;29.51;52.95
69464;DHT22;56665;41.106;16.688;2023-09-12T15:39:29;29.35;53.28
69464;DHT22;56665;41.106;16.688;2023-09-12T15:42:33;29.18;54.24
69464;DHT22;56665;41.106;16.688;2023-09-12T15:45:37;29.15;54.82
69464;DHT22;56665;41.106;16.688;2023-09-12T15:48:41;28.97;56.23
69464;DHT22;56665;41.106;16.688;2023-09-12T15:51:45;28.79;56.88
69464;DHT22;56665;41.106;16.688;2023-09-12T15:54:48;28.58;58.29
69464;DHT22;56665;41.106;16.688;2023-09-12T15:57:55;28.43;59.62
69464;DHT22;56665;41.106;16.688;2023-09-12T16:00:58;28.25;60.97
69464;DHT22;56665;41.106;16.688;2023-09-12T16:04:03;28.12;61.99
69464;DHT22;56665;41.106;16.688;2023-09-12T16:07:06;28.02;62.74
69464;DHT22;56665;41.106;16.688;2023-09-12T16:10:10;27.91;63.58
69464;DHT22;56665;41.106;16.688;2023-09-12T16:13:16;27.90;64.06
69464;DHT22;56665;41.106;16.688;2023-09-12T16:16:20;27.78;64.21
69464;DHT22;56665;41.106;16.688;2023-09-12T16:19:24;27.71;64.92
69464;DHT22;56665;41.106;16.688;2023-09-12T16:22:28;27.66;65.47
69464;DHT22;56665;41.106;16.688;2023-09-12T16:25:32;27.54;65.87
69464;DHT22;56665;41.106;16.688;2023-09-12T16:28:35;27.46;66.61
69464;DHT22;56665;41.106;16.688;2023-09-12T16:31:39;27.43;66.63
69464;DHT22;56665;41.106;16.688;2023-09-12T16:34:44;27.40;66.98
69464;DHT22;56665;41.106;16.688;2023-09-12T16:37:48;27.38;67.28
69464;DHT22;56665;41.106;16.688;2023-09-12T16:40:52;27.29;68.01
69464;DHT22;56665;41.106;16.688;2023-09-12T16:43:55;27.18;68.70
69464;DHT22;56665;41.106;16.688;2023-09-12T16:46:59;27.12;69.04
69464;DHT22;56665;41.106;16.688;2023-09-12T16:50:03;27.03;69.23
69464;DHT22;56665;41.106;16.688;2023-09-12T16:53:07;27.02;69.43
69464;DHT22;56665;41.106;16.688;2023-09-12T16:56:10;26.95;69.48
69464;DHT22;56665;41.106;16.688;2023-09-12T16:59:14;26.95;69.48
69464;DHT22;56665;41.106;16.688;2023-09-12T17:02:18;26.94;69.38
69464;DHT22;56665;41.106;16.688;2023-09-12T17:05:22;26.87;69.56
69464;DHT22;56665;41.106;16.688;2023-09-12T17:08:28;26.84;69.59
69464;DHT22;56665;41.106;16.688;2023-09-12T17:11:32;26.84;69.70
69464;DHT22;56665;41.106;16.688;2023-09-12T17:14:35;26.80;69.71
69464;DHT22;56665;41.106;16.688;2023-09-12T17:17:39;26.78;69.82
69464;DHT22;56665;41.106;16.688;2023-09-12T17:20:43;26.72;69.75
69464;DHT22;56665;41.106;16.688;2023-09-12T17:23:47;26.71;69.81
69464;DHT22;56665;41.106;16.688;2023-09-12T17:26:50;26.67;69.92
69464;DHT22;56665;41.106;16.688;2023-09-12T17:29:55;26.64;70.12
69464;DHT22;56665;41.106;16.688;2023-09-12T17:32:59;26.61;70.23
69464;DHT22;56665;41.106;16.688;2023-09-12T17:36:03;26.57;70.55
69464;DHT22;56665;41.106;16.688;2023-09-12T17:39:07;26.58;70.11
69464;DHT22;56665;41.106;16.688;2023-09-12T17:45:23;26.58;70.13
69464;DHT22;56665;41.106;16.688;2023-09-12T17:48:27;26.60;69.73
69464;DHT22;56665;41.106;16.688;2023-09-12T17:51:30;26.60;69.80
69464;DHT22;56665;41.106;16.688;2023-09-12T17:54:36;26.55;69.66
69464;DHT22;56665;41.106;16.688;2023-09-12T17:57:39;26.55;69.56
69464;DHT22;56665;41.106;16.688;2023-09-12T18:00:43;26.57;69.21
69464;DHT22;56665;41.106;16.688;2023-09-12T18:03:47;26.55;69.00
69464;DHT22;56665;41.106;16.688;2023-09-12T18:06:52;26.51;68.94
69464;DHT22;56665;41.106;16.688;2023-09-12T18:09:56;26.44;68.95
69464;DHT22;56665;41.106;16.688;2023-09-12T18:12:59;26.47;69.34
69464;DHT22;56665;41.106;16.688;2023-09-12T18:16:03;26.41;69.04
69464;DHT22;56665;41.106;16.688;2023-09-12T18:19:07;26.37;67.65
69464;DHT22;56665;41.106;16.688;2023-09-12T18:22:11;26.29;66.36
69464;DHT22;56665;41.106;16.688;2023-09-12T18:25:15;26.21;65.90
69464;DHT22;56665;41.106;16.688;2023-09-12T18:28:40;26.17;64.23
69464;DHT22;56665;41.106;16.688;2023-09-12T18:31:44;26.17;64.00
69464;DHT22;56665;41.106;16.688;2023-09-12T18:34:47;26.16;63.36
69464;DHT22;56665;41.106;16.688;2023-09-12T18:37:51;26.17;61.84
69464;DHT22;56665;41.106;16.688;2023-09-12T18:40:55;26.19;60.32
69464;DHT22;56665;41.106;16.688;2023-09-12T18:43:58;26.24;57.72
69464;DHT22;56665;41.106;16.688;2023-09-12T18:47:02;26.26;56.03
69464;DHT22;56665;41.106;16.688;2023-09-12T18:50:07;26.27;55.73
69464;DHT22;56665;41.106;16.688;2023-09-12T18:53:10;26.29;56.83
69464;DHT22;56665;41.106;16.688;2023-09-12T18:56:19;26.29;56.61
69464;DHT22;56665;41.106;16.688;2023-09-12T18:59:22;26.30;55.55
69464;DHT22;56665;41.106;16.688;2023-09-12T19:02:26;26.27;53.39
69464;DHT22;56665;41.106;16.688;2023-09-12T19:05:31;26.29;53.63
69464;DHT22;56665;41.106;16.688;2023-09-12T19:08:35;26.27;53.50
69464;DHT22;56665;41.106;16.688;2023-09-12T19:11:47;26.27;53.79
69464;DHT22;56665;41.106;16.688;2023-09-12T19:14:51;26.29;54.50
69464;DHT22;56665;41.106;16.688;2023-09-12T19:17:55;26.26;53.50
69464;DHT22;56665;41.106;16.688;2023-09-12T19:20:59;26.26;53.82
69464;DHT22;56665;41.106;16.688;2023-09-12T19:24:06;26.29;53.68